This is the latest recevied weather packets stored in our database for station/object N2QDK-2. If no packets are shown the sender has not sent any weather packets the latest 10 day(s).
| Time | Temp. | Humidity | Pressure | Rain* | Wind** | Luminosity | Snow |
|---|---|---|---|---|---|---|---|
| 1777850116 | 12.78° C | 56% | 1009.3 hPa | 0 mm | - | - | - |
| 1777849517 | 12.78° C | 53% | 1009 hPa | 0 mm | - | - | - |
| 1777848917 | 12.78° C | 51% | 1009 hPa | 0 mm | - | - | - |
| 1777848316 | 13.33° C | 50% | 1008.8 hPa | 0 mm | - | - | - |
| 1777847716 | 13.33° C | 48% | 1008.8 hPa | 0 mm | - | - | - |
| 1777847116 | 13.33° C | 49% | 1008.8 hPa | 0 mm | - | - | - |
| 1777846517 | 13.33° C | 48% | 1008.7 hPa | 0 mm | - | - | - |
| 1777845916 | 13.89° C | 47% | 1008.6 hPa | 0 mm | - | - | - |
| 1777845316 | 13.33° C | 49% | 1009 hPa | 0 mm | - | - | - |
| 1777844716 | 13.33° C | 50% | 1009.3 hPa | 0 mm | - | - | - |
| 1777844116 | 13.89° C | 47% | 1009.4 hPa | 0 mm | - | - | - |
| 1777843516 | 13.89° C | 45% | 1009.1 hPa | 0 mm | - | - | - |
| 1777842916 | 13.89° C | 44% | 1008.9 hPa | 0 mm | - | - | - |
| 1777842316 | 14.44° C | 44% | 1008.8 hPa | 0 mm | - | - | - |
| 1777841716 | 14.44° C | 43% | 1008.9 hPa | 0 mm | - | - | - |
| 1777841116 | 14.44° C | 42% | 1009 hPa | 0 mm | - | - | - |
| 1777840516 | 14.44° C | 41% | 1009.2 hPa | 0 mm | - | - | - |
| 1777839916 | 14.44° C | 41% | 1009.2 hPa | 0 mm | - | - | - |
| 1777839316 | 14.44° C | 41% | 1009.4 hPa | 0 mm | - | - | - |
| 1777838716 | 14.44° C | 41% | 1009.6 hPa | 0 mm | - | - | - |
| 1777838116 | 14.44° C | 40% | 1009.8 hPa | 0 mm | - | - | - |
| 1777837516 | 14.44° C | 40% | 1009.9 hPa | 0 mm | - | - | - |
| 1777836916 | 13.89° C | 42% | 1010.2 hPa | 0 mm | - | - | - |
| 1777836316 | 13.89° C | 40% | 1010.3 hPa | 0 mm | - | - | - |
| 1777835716 | 13.89° C | 44% | 1010.5 hPa | 0 mm | - | - | - |
* Rain latest hour (hover to see other rain measurements)
** Current wind speed in m/s (hover to see current wind gust speed)